Time;durP1;ratioP1;P1;durP2;ratioP2;P2;SDS_P1;SDS_P2;PMS_P1;PMS_P2;Temp;Humidity;BMP_temperature;BMP_pressure;BME280_temperature;BME280_humidity;BME280_pressure;Samples;Min_cycle;Max_cycle;Signal;HPM_P1;HPM_P2
2021/12/28 00:01:40;;;;;;;14.40;3.35;;;;;;;9.29;84.81;97213.19;4957047;28;20078;-51
2021/12/28 00:04:07;;;;;;;9.90;2.75;;;;;;;9.28;84.78;97208.09;4962241;28;20054;-55
2021/12/28 00:06:33;;;;;;;21.60;3.80;;;;;;;9.28;84.78;97219.25;4964062;28;20050;-53
2021/12/28 00:09:00;;;;;;;17.27;3.90;;;;;;;9.29;84.59;97227.84;4967544;28;20050;-55
2021/12/28 00:11:27;;;;;;;15.60;3.33;;;;;;;9.29;84.62;97228.69;4964149;28;20494;-52
2021/12/28 00:14:00;;;;;;;19.80;2.80;;;;;;;9.30;84.86;97234.69;4969477;28;20483;-54
2021/12/28 00:16:34;;;;;;;17.58;2.83;;;;;;;9.28;84.75;97227.00;4961981;28;20046;-53
2021/12/28 00:19:02;;;;;;;18.52;3.40;;;;;;;9.29;84.79;97222.69;4959208;28;20104;-52
2021/12/28 00:21:29;;;;;;;12.23;3.60;;;;;;;9.29;84.78;97223.50;4952753;28;20125;-51
2021/12/28 00:23:57;;;;;;;16.77;2.40;;;;;;;9.30;85.00;97229.53;4959163;28;20059;-55
2021/12/28 00:26:24;;;;;;;15.65;2.85;;;;;;;9.35;84.73;97219.81;4965285;28;20043;-52
2021/12/28 00:28:51;;;;;;;22.42;3.80;;;;;;;9.35;84.76;97222.41;4963823;28;20507;-49
2021/12/28 00:31:18;;;;;;;16.50;3.70;;;;;;;9.35;84.67;97233.59;4968856;28;20448;-56
2021/12/28 00:33:45;;;;;;;18.50;3.72;;;;;;;9.37;84.84;97241.28;4967112;28;20054;-51
2021/12/28 00:36:13;;;;;;;16.15;3.35;;;;;;;9.38;84.72;97227.44;4962315;28;20066;-53
2021/12/28 00:38:41;;;;;;;14.55;3.38;;;;;;;9.41;84.49;97227.31;4962986;28;20550;-54
2021/12/28 00:41:08;;;;;;;11.18;3.13;;;;;;;9.39;84.79;97226.53;4963477;28;20042;-50
2021/12/28 00:43:35;;;;;;;22.17;3.72;;;;;;;9.42;84.60;97230.75;4961319;28;20109;-56
2021/12/28 00:46:04;;;;;;;8.43;2.28;;;;;;;9.39;84.52;97224.81;4961581;28;20055;-50
2021/12/28 00:48:31;;;;;;;13.05;3.20;;;;;;;9.40;84.62;97230.81;4967219;28;20043;-52
2021/12/28 00:50:59;;;;;;;9.02;2.45;;;;;;;9.37;84.51;97241.28;4963841;28;20050;-51
2021/12/28 00:53:26;;;;;;;11.43;2.85;;;;;;;9.36;84.74;97226.69;4964330;28;20090;-50
2021/12/28 00:55:53;;;;;;;13.20;2.88;;;;;;;9.36;84.94;97237.84;4965316;28;20047;-55
2021/12/28 00:58:21;;;;;;;16.48;3.30;;;;;;;9.38;84.50;97248.13;4960540;28;20474;-54
2021/12/28 01:00:48;;;;;;;12.05;2.88;;;;;;;9.39;84.57;97254.94;4964808;28;20107;-51
2021/12/28 01:03:15;;;;;;;7.85;3.08;;;;;;;9.40;84.38;97251.47;4958884;28;20090;-51
2021/12/28 01:05:44;;;;;;;17.38;2.80;;;;;;;9.38;84.45;97258.44;4945680;28;20086;-51
2021/12/28 01:08:11;;;;;;;14.40;3.13;;;;;;;9.42;84.40;97260.00;4960720;28;20047;-48
2021/12/28 01:10:45;;;;;;;16.33;3.45;;;;;;;9.40;84.66;97254.06;4962512;28;20055;-56
2021/12/28 01:13:13;;;;;;;12.57;3.15;;;;;;;9.42;84.69;97236.75;4963632;28;20104;-52
2021/12/28 01:15:40;;;;;;;13.93;2.90;;;;;;;9.40;84.24;97230.81;4970015;28;20043;-55
2021/12/28 01:18:08;;;;;;;12.02;2.58;;;;;;;9.42;84.69;97229.00;4968122;28;20062;-54
2021/12/28 01:20:35;;;;;;;9.45;2.72;;;;;;;9.39;84.43;97231.69;4971397;28;20109;-53
2021/12/28 01:23:03;;;;;;;14.25;3.22;;;;;;;9.40;84.60;97238.56;4965201;28;20466;-52
2021/12/28 01:25:31;;;;;;;10.88;2.65;;;;;;;9.40;84.65;97241.16;4966250;28;20047;-53
2021/12/28 01:27:57;;;;;;;8.93;2.33;;;;;;;9.39;84.45;97239.44;4964572;28;20055;-54
2021/12/28 01:30:26;;;;;;;9.13;1.95;;;;;;;9.40;84.36;97246.31;4965171;28;20059;-56
2021/12/28 01:32:53;;;;;;;9.48;2.80;;;;;;;9.38;84.47;97248.13;4965036;28;20089;-48
2021/12/28 01:35:20;;;;;;;10.18;2.55;;;;;;;9.39;84.48;97254.94;4967736;28;20046;-55
2021/12/28 01:37:47;;;;;;;8.77;2.03;;;;;;;9.38;84.74;97256.72;4973245;28;20490;-55
2021/12/28 01:40:19;;;;;;;12.13;2.05;;;;;;;9.39;84.51;97258.38;4968831;28;20054;-54
2021/12/28 01:42:56;;;;;;;9.10;2.35;;;;;;;9.40;84.54;97266.97;4966612;28;20165;-55
2021/12/28 01:45:32;;;;;;;6.28;2.28;;;;;;;9.40;84.51;97261.81;4968963;28;20055;-52
2021/12/28 01:47:59;;;;;;;8.13;2.05;;;;;;;9.44;84.42;97273.69;4965791;28;20140;-52
2021/12/28 01:50:26;;;;;;;8.70;2.30;;;;;;;9.44;84.27;97278.88;4969474;28;20510;-49
2021/12/28 01:52:53;;;;;;;8.45;1.85;;;;;;;9.44;84.29;97268.53;4968544;28;20105;-56
2021/12/28 01:55:20;;;;;;;13.95;2.83;;;;;;;9.46;84.58;97269.28;4969617;28;20557;-58
2021/12/28 01:57:47;;;;;;;10.93;1.83;;;;;;;9.44;84.46;97265.94;4969464;28;20106;-49
2021/12/28 02:00:14;;;;;;;10.60;2.08;;;;;;;9.47;84.31;97267.56;4969233;28;20105;-57
2021/12/28 02:02:41;;;;;;;9.05;1.88;;;;;;;9.47;84.23;97278.75;4966106;28;20062;-54
2021/12/28 02:05:08;;;;;;;7.20;2.85;;;;;;;9.48;84.63;97275.25;4971328;28;20049;-52
2021/12/28 02:07:35;;;;;;;9.98;2.13;;;;;;;9.51;84.32;97284.59;4966771;28;20537;-52
2021/12/28 02:10:03;;;;;;;9.15;2.67;;;;;;;9.52;84.29;97286.28;4971168;28;20109;-54
2021/12/28 02:12:30;;;;;;;11.30;3.03;;;;;;;9.51;84.57;97285.44;4946958;28;20059;-54
2021/12/28 02:14:57;;;;;;;8.57;2.40;;;;;;;9.52;84.01;97281.09;4952005;28;20117;-49
2021/12/28 02:17:24;;;;;;;13.65;2.38;;;;;;;9.50;84.25;97276.00;4952663;28;20379;-55
2021/12/28 02:19:50;;;;;;;8.98;2.83;;;;;;;9.49;84.00;97282.06;4971314;28;20446;-50
2021/12/28 02:22:17;;;;;;;15.90;3.05;;;;;;;9.48;83.81;97285.56;4970203;28;20047;-53
2021/12/28 02:24:44;;;;;;;14.20;3.03;;;;;;;9.47;83.73;97289.06;4969444;28;20090;-53
2021/12/28 02:27:10;;;;;;;11.85;2.15;;;;;;;9.47;84.00;97289.06;4964856;28;20808;-52
2021/12/28 02:29:37;;;;;;;11.77;2.55;;;;;;;9.46;84.01;97282.19;4967255;28;20055;-49
2021/12/28 02:32:04;;;;;;;13.82;2.47;;;;;;;9.45;84.13;97280.53;4970374;28;20054;-58
2021/12/28 02:34:31;;;;;;;13.80;2.78;;;;;;;9.44;83.91;97276.28;4968621;28;20046;-55
2021/12/28 02:36:57;;;;;;;15.82;2.75;;;;;;;9.42;83.77;97270.31;4964905;28;20090;-55
2021/12/28 02:39:24;;;;;;;14.75;2.88;;;;;;;9.39;83.67;97275.63;4972523;28;20487;-56
2021/12/28 02:41:50;;;;;;;10.55;2.58;;;;;;;9.37;83.85;97277.44;4965126;28;20059;-53
2021/12/28 02:44:17;;;;;;;8.57;2.67;;;;;;;9.37;84.00;97280.03;4972161;28;20105;-52
2021/12/28 02:46:44;;;;;;;13.65;2.50;;;;;;;9.36;83.78;97270.59;4966949;28;20098;-52
2021/12/28 02:49:10;;;;;;;8.40;1.88;;;;;;;9.37;84.21;97267.09;4970400;28;20050;-55
2021/12/28 02:51:37;;;;;;;6.90;1.92;;;;;;;9.36;83.97;97249.94;4969359;28;20105;-54
2021/12/28 02:54:04;;;;;;;7.93;2.85;;;;;;;9.37;83.75;97236.09;4968375;28;20042;-55
2021/12/28 02:56:30;;;;;;;9.70;1.73;;;;;;;9.37;84.84;97236.09;4966269;28;20038;-52
2021/12/28 02:59:01;;;;;;;6.45;2.53;;;;;;;9.33;83.79;97239.72;4967168;28;20073;-49
2021/12/28 03:01:29;;;;;;;5.72;2.70;;;;;;;9.31;83.90;97236.38;4969805;28;20046;-51
2021/12/28 03:04:03;;;;;;;8.25;2.13;;;;;;;9.33;84.28;97242.31;4965271;28;20502;-52
2021/12/28 03:06:31;;;;;;;5.13;2.13;;;;;;;9.32;83.84;97243.22;4965987;28;20034;-57
2021/12/28 03:09:00;;;;;;;7.13;1.80;;;;;;;9.33;84.21;97240.59;4968460;28;20058;-50
2021/12/28 03:11:28;;;;;;;9.82;1.85;;;;;;;9.36;83.98;97239.59;4965707;28;20078;-51
2021/12/28 03:13:59;;;;;;;7.00;1.80;;;;;;;9.35;83.89;97249.09;4968213;28;20054;-51
2021/12/28 03:16:28;;;;;;;13.43;2.25;;;;;;;9.36;83.73;97244.78;4965837;28;20058;-54
2021/12/28 03:18:56;;;;;;;13.02;2.42;;;;;;;9.35;84.18;97227.56;4984295;28;20105;-52
2021/12/28 03:21:23;;;;;;;9.30;2.22;;;;;;;9.35;83.26;97214.66;4968367;28;20054;-56
2021/12/28 03:23:52;;;;;;;6.95;1.42;;;;;;;9.35;83.60;97209.50;4967348;28;20145;-53
2021/12/28 03:26:18;;;;;;;7.30;2.22;;;;;;;9.33;83.75;97213.91;4962220;28;20047;-48
2021/12/28 03:28:45;;;;;;;15.60;2.55;;;;;;;9.32;84.03;97202.72;4966765;28;20055;-51
2021/12/28 03:31:18;;;;;;;11.85;2.30;;;;;;;9.31;83.58;97205.38;4965202;28;20055;-51
2021/12/28 03:33:48;;;;;;;14.05;2.25;;;;;;;9.32;83.79;97200.13;4967090;28;20442;-55
2021/12/28 03:36:16;;;;;;;5.15;2.45;;;;;;;9.34;83.67;97200.06;4967688;28;20097;-53
2021/12/28 03:38:44;;;;;;;8.35;1.38;;;;;;;9.34;83.73;97205.25;4979477;28;20105;-49
2021/12/28 03:41:12;;;;;;;9.55;1.85;;;;;;;9.35;83.93;97206.91;4965087;28;20047;-54
2021/12/28 03:43:42;;;;;;;8.25;2.08;;;;;;;9.34;83.55;97210.41;4967649;28;20061;-58
2021/12/28 03:46:09;;;;;;;10.68;2.00;;;;;;;9.33;83.98;97201.00;4969404;28;20121;-52
2021/12/28 03:48:37;;;;;;;13.15;2.28;;;;;;;9.32;83.66;97202.72;4964788;28;20073;-57
2021/12/28 03:51:06;;;;;;;14.73;2.88;;;;;;;9.31;83.46;97201.06;4969656;28;20046;-57
2021/12/28 03:53:33;;;;;;;15.20;2.20;;;;;;;9.30;83.52;97193.38;4963927;28;20054;-50
2021/12/28 03:56:02;;;;;;;12.88;2.53;;;;;;;9.31;83.94;97195.03;4968670;28;20046;-53
2021/12/28 03:58:28;;;;;;;13.98;2.60;;;;;;;9.30;83.68;97193.38;4962838;28;20054;-51
2021/12/28 04:00:55;;;;;;;13.05;2.40;;;;;;;9.29;83.82;97202.03;4965129;28;20050;-53
2021/12/28 04:03:22;;;;;;;14.07;2.97;;;;;;;9.30;83.59;97193.38;4963729;28;20133;-55
2021/12/28 04:05:49;;;;;;;15.32;2.80;;;;;;;9.30;83.74;97188.19;4968287;28;20059;-50
2021/12/28 04:08:21;;;;;;;11.82;2.20;;;;;;;9.31;84.12;97184.69;4968510;28;20046;-57
2021/12/28 04:10:53;;;;;;;12.65;2.25;;;;;;;9.31;83.87;97179.53;4965894;28;20058;-51
2021/12/28 04:13:21;;;;;;;16.92;1.58;;;;;;;9.30;83.70;97178.72;4960676;28;20592;-54
2021/12/28 04:15:48;;;;;;;12.07;2.45;;;;;;;9.31;83.29;97179.53;4968314;28;20077;-51
2021/12/28 04:18:17;;;;;;;10.07;2.33;;;;;;;9.28;83.59;97175.34;4966342;28;20101;-53
2021/12/28 04:20:44;;;;;;;13.73;2.83;;;;;;;9.26;83.09;97175.41;4964981;28;20176;-56
2021/12/28 04:23:12;;;;;;;16.00;2.13;;;;;;;9.24;84.05;97169.50;4968493;28;20042;-54
2021/12/28 04:25:38;;;;;;;8.75;1.77;;;;;;;9.23;83.58;97166.97;4964939;28;20105;-51
2021/12/28 04:28:05;;;;;;;13.15;2.17;;;;;;;9.22;83.77;97166.13;4966641;28;20483;-53
2021/12/28 04:30:31;;;;;;;10.60;2.47;;;;;;;9.22;83.28;97171.28;4965120;28;20101;-51
2021/12/28 04:32:58;;;;;;;9.20;2.38;;;;;;;9.22;84.18;97160.13;4965026;28;20058;-52
2021/12/28 04:35:25;;;;;;;22.58;2.50;;;;;;;9.22;84.07;97158.38;4965667;28;20157;-52
2021/12/28 04:37:51;;;;;;;19.10;4.05;;;;;;;9.23;83.90;97157.47;4964286;28;20055;-53
2021/12/28 04:40:18;;;;;;;13.05;2.35;;;;;;;9.22;83.72;97160.97;4967227;28;20047;-50
2021/12/28 04:42:45;;;;;;;11.80;2.35;;;;;;;9.24;84.09;97163.47;4967866;28;20042;-52
2021/12/28 04:45:14;;;;;;;11.43;2.20;;;;;;;9.25;83.75;97157.41;4966567;28;20058;-52
2021/12/28 04:47:41;;;;;;;14.90;2.95;;;;;;;9.26;83.73;97151.34;4965015;28;20043;-52
2021/12/28 04:50:10;;;;;;;19.13;2.42;;;;;;;9.25;83.74;97158.25;4967433;28;20051;-49
2021/12/28 04:52:39;;;;;;;15.88;3.05;;;;;;;9.26;83.66;97152.16;4971509;28;20518;-53
2021/12/28 04:55:10;;;;;;;11.65;2.00;;;;;;;9.26;83.98;97147.00;4970569;28;20983;-53
2021/12/28 04:57:37;;;;;;;10.88;1.90;;;;;;;9.27;83.90;97142.69;4970880;28;20047;-47
2021/12/28 05:00:08;;;;;;;10.63;2.78;;;;;;;9.29;83.50;97145.22;4966253;28;20569;-52
2021/12/28 05:02:35;;;;;;;11.95;2.08;;;;;;;9.28;83.21;97136.59;4967857;28;20046;-56
2021/12/28 05:05:03;;;;;;;10.65;2.10;;;;;;;9.29;83.54;97134.88;4966845;28;20058;-56
2021/12/28 05:07:30;;;;;;;9.32;2.28;;;;;;;9.29;83.73;97142.63;4972319;28;20054;-51
2021/12/28 05:09:58;;;;;;;11.95;1.50;;;;;;;9.28;83.74;97138.38;4969811;28;20059;-52
2021/12/28 05:12:27;;;;;;;11.45;1.95;;;;;;;9.28;83.60;97133.22;4971280;28;20491;-52
2021/12/28 05:14:53;;;;;;;12.10;2.10;;;;;;;9.26;83.90;97138.44;4970310;28;20054;-56
2021/12/28 05:17:20;;;;;;;8.65;1.33;;;;;;;9.26;83.77;97134.09;4966569;28;20055;-54
2021/12/28 05:19:47;;;;;;;9.18;2.13;;;;;;;9.27;84.29;97132.34;4971116;28;20101;-48
2021/12/28 05:22:13;;;;;;;8.65;1.63;;;;;;;9.26;83.89;97131.50;4968287;28;20483;-54
2021/12/28 05:24:40;;;;;;;4.40;1.38;;;;;;;9.27;83.88;97137.53;4972102;28;20457;-51
2021/12/28 05:27:06;;;;;;;10.48;2.03;;;;;;;9.25;83.72;97140.16;4967340;28;20101;-55
2021/12/28 05:29:33;;;;;;;13.32;2.33;;;;;;;9.26;83.99;97131.50;4966956;28;20062;-53
2021/12/28 05:32:00;;;;;;;7.40;1.90;;;;;;;9.26;83.56;97131.50;4973048;28;20050;-51
2021/12/28 05:34:26;;;;;;;11.65;1.95;;;;;;;9.26;83.66;97128.09;4969081;28;20075;-55
2021/12/28 05:36:53;;;;;;;10.38;1.98;;;;;;;9.28;83.67;97122.88;4968858;28;20039;-54
2021/12/28 05:39:20;;;;;;;9.00;1.60;;;;;;;9.27;83.61;97122.03;4968583;28;20054;-51
2021/12/28 05:41:47;;;;;;;10.13;1.73;;;;;;;9.26;84.46;97118.59;4970198;28;20053;-54
2021/12/28 05:44:13;;;;;;;8.68;1.58;;;;;;;9.26;83.47;97121.19;4966671;28;20528;-51
2021/12/28 05:46:40;;;;;;;15.98;1.67;;;;;;;9.24;83.52;97123.00;4967016;28;20446;-54
2021/12/28 05:49:07;;;;;;;11.10;1.88;;;;;;;9.23;83.66;97121.31;4969579;28;20081;-57
2021/12/28 05:51:33;;;;;;;11.15;2.33;;;;;;;9.23;83.99;97116.16;4967636;28;20043;-54
2021/12/28 05:54:00;;;;;;;10.80;2.15;;;;;;;9.24;83.60;97109.25;4968925;28;20490;-50
2021/12/28 05:56:26;;;;;;;8.88;1.52;;;;;;;9.23;83.49;97110.97;4967380;28;20121;-51
2021/12/28 05:58:53;;;;;;;6.63;1.20;;;;;;;9.23;84.00;97099.84;4967323;28;20459;-51
2021/12/28 06:01:20;;;;;;;5.68;1.05;;;;;;;9.18;83.80;97096.63;4968160;28;20090;-51
2021/12/28 06:03:47;;;;;;;2.72;0.63;;;;;;;9.19;83.66;97093.94;4969071;28;20043;-53
2021/12/28 06:06:13;;;;;;;2.83;1.05;;;;;;;9.19;84.00;97088.78;4964819;28;20098;-51
2021/12/28 06:08:40;;;;;;;2.83;1.17;;;;;;;9.17;83.74;97085.44;4966753;28;20042;-54
2021/12/28 06:11:11;;;;;;;5.45;0.70;;;;;;;9.16;83.51;97088.94;4967610;28;20097;-52
2021/12/28 06:13:40;;;;;;;4.28;1.08;;;;;;;9.14;83.62;97085.56;4968122;28;20047;-55
2021/12/28 06:16:09;;;;;;;5.53;0.93;;;;;;;9.12;83.58;97082.25;4967233;28;20050;-51
2021/12/28 06:18:36;;;;;;;2.80;0.75;;;;;;;9.12;83.59;97082.25;4967086;28;20047;-47
2021/12/28 06:21:04;;;;;;;2.00;1.05;;;;;;;9.13;83.25;97076.97;4968768;28;20039;-51
2021/12/28 06:23:31;;;;;;;3.28;0.70;;;;;;;9.11;83.45;97080.53;4967345;28;20047;-58
2021/12/28 06:25:57;;;;;;;3.78;0.85;;;;;;;9.10;83.38;97073.72;4965391;28;20491;-55
2021/12/28 06:28:24;;;;;;;3.00;0.95;;;;;;;9.10;83.66;97078.88;4963734;28;20110;-52
2021/12/28 06:30:50;;;;;;;6.45;1.80;;;;;;;9.09;83.35;97072.03;4970775;28;20057;-51
2021/12/28 06:33:17;;;;;;;2.58;0.85;;;;;;;9.08;83.36;97072.94;4968917;28;20142;-55
2021/12/28 06:35:44;;;;;;;2.00;0.82;;;;;;;9.08;83.42;97078.94;4968248;28;20059;-55
2021/12/28 06:38:10;;;;;;;3.05;1.02;;;;;;;9.08;83.38;97076.34;4970725;28;20043;-52
2021/12/28 06:40:37;;;;;;;2.72;0.90;;;;;;;9.09;83.45;97072.03;4967276;28;20948;-50
2021/12/28 06:43:04;;;;;;;2.70;0.73;;;;;;;9.05;83.39;97062.75;4970322;28;20566;-53
2021/12/28 06:45:30;;;;;;;1.60;1.02;;;;;;;9.04;83.45;97054.16;4967084;28;21634;-52
2021/12/28 06:47:57;;;;;;;1.70;1.10;;;;;;;9.00;82.87;97050.91;4968700;28;20137;-54
2021/12/28 06:50:24;;;;;;;4.47;1.27;;;;;;;9.01;83.37;97043.97;4968648;28;20050;-52
2021/12/28 06:52:50;;;;;;;5.43;1.25;;;;;;;9.00;83.50;97026.81;4967574;28;20122;-49
2021/12/28 06:55:17;;;;;;;1.85;0.60;;;;;;;8.97;83.16;97017.47;4965230;28;20051;-50
2021/12/28 06:57:44;;;;;;;5.30;0.85;;;;;;;8.94;83.33;97025.34;4968431;28;20046;-50
2021/12/28 07:00:14;;;;;;;3.13;1.02;;;;;;;8.93;83.04;97028.00;4963691;28;20094;-50
2021/12/28 07:02:42;;;;;;;3.60;0.77;;;;;;;8.94;83.10;97022.75;4961582;28;20054;-52
2021/12/28 07:05:10;;;;;;;5.85;1.33;;;;;;;8.93;83.53;97013.34;4970242;28;20073;-54
2021/12/28 07:07:38;;;;;;;4.82;1.27;;;;;;;8.91;84.04;97012.56;4966166;28;20059;-55
2021/12/28 07:10:07;;;;;;;4.70;1.38;;;;;;;8.91;83.09;97007.41;4971564;28;20093;-51
2021/12/28 07:12:34;;;;;;;2.92;1.27;;;;;;;8.93;83.51;97010.78;4966013;28;20135;-51
2021/12/28 07:15:01;;;;;;;3.47;1.27;;;;;;;8.92;83.83;97009.06;4963884;28;20050;-49
2021/12/28 07:17:27;;;;;;;4.25;1.90;;;;;;;8.92;83.54;97010.84;4968312;28;20561;-51
2021/12/28 07:19:54;;;;;;;5.75;1.38;;;;;;;8.93;83.04;97008.19;4966429;28;20059;-55
2021/12/28 07:22:21;;;;;;;3.00;0.90;;;;;;;8.92;83.71;97006.50;4969145;28;20051;-53
2021/12/28 07:24:48;;;;;;;2.58;0.93;;;;;;;8.93;83.58;97005.63;4965338;28;20055;-54
2021/12/28 07:27:14;;;;;;;3.20;1.10;;;;;;;8.93;83.45;97004.75;4968221;28;20101;-49
2021/12/28 07:29:41;;;;;;;5.65;1.63;;;;;;;8.93;83.56;97000.44;4967243;28;20073;-55
2021/12/28 07:32:08;;;;;;;5.68;1.40;;;;;;;8.95;83.08;96997.81;4968306;28;20102;-54
2021/12/28 07:34:35;;;;;;;8.38;1.50;;;;;;;8.96;83.06;96999.47;4966184;28;20051;-50
2021/12/28 07:37:02;;;;;;;5.47;1.23;;;;;;;8.92;83.73;96998.75;4968253;28;20438;-52
2021/12/28 07:39:28;;;;;;;6.07;1.50;;;;;;;8.93;83.38;97000.44;4968482;28;20043;-55
2021/12/28 07:41:55;;;;;;;5.13;2.08;;;;;;;8.94;83.31;96996.97;4963512;28;20110;-50
2021/12/28 07:44:23;;;;;;;3.10;1.33;;;;;;;8.92;83.52;96998.75;4967417;28;20054;-51
2021/12/28 07:46:49;;;;;;;3.85;1.88;;;;;;;8.92;83.17;96998.75;4966272;28;20072;-57
2021/12/28 07:49:16;;;;;;;4.35;1.05;;;;;;;8.93;83.13;97000.44;4966875;28;20122;-52
2021/12/28 07:51:43;;;;;;;2.90;1.85;;;;;;;8.90;83.58;96995.41;4965875;28;20055;-52
2021/12/28 07:54:10;;;;;;;2.53;1.02;;;;;;;8.91;83.57;96999.66;4965858;28;20105;-58
2021/12/28 07:56:37;;;;;;;2.08;1.02;;;;;;;8.91;83.54;97002.25;4964235;28;20055;-53
2021/12/28 07:59:05;;;;;;;3.03;0.93;;;;;;;8.85;83.63;96997.38;4963585;28;20043;-50
2021/12/28 08:01:33;;;;;;;1.98;0.80;;;;;;;8.86;83.46;96999.06;4967617;28;20050;-50
2021/12/28 08:04:00;;;;;;;2.60;1.27;;;;;;;8.88;83.04;97007.53;4966041;28;20046;-48
2021/12/28 08:06:27;;;;;;;2.28;1.05;;;;;;;8.86;82.78;97006.78;4962665;28;20047;-50
2021/12/28 08:08:53;;;;;;;1.52;0.65;;;;;;;8.83;83.03;97007.78;4969965;28;20050;-54
2021/12/28 08:11:22;;;;;;;1.08;0.85;;;;;;;8.79;82.74;97007.97;4968267;28;20105;-53
2021/12/28 08:13:50;;;;;;;0.85;0.50;;;;;;;8.74;82.37;97011.59;4966149;28;20102;-51
2021/12/28 08:16:17;;;;;;;16.15;4.13;;;;;;;8.68;82.74;97027.34;4963038;28;20091;-55
2021/12/28 08:18:44;;;;;;;39.15;14.18;;;;;;;8.63;82.67;97038.75;4966921;28;20118;-52
2021/12/28 08:21:28;;;;;;;11.20;6.90;;;;;;;8.58;81.97;97055.28;4967620;28;20046;-51
2021/12/28 08:23:55;;;;;;;2.35;1.05;;;;;;;8.49;81.88;97064.19;4964147;28;20496;-56
2021/12/28 08:26:22;;;;;;;7.78;3.40;;;;;;;8.39;81.58;97081.00;4962636;28;20081;-54
2021/12/28 08:28:49;;;;;;;2.75;1.25;;;;;;;8.33;80.66;97089.81;4964601;28;20054;-48
2021/12/28 08:31:15;;;;;;;1.98;1.02;;;;;;;8.27;81.45;97094.41;4965908;28;21329;-52
2021/12/28 08:33:42;;;;;;;3.65;2.42;;;;;;;8.21;81.06;97106.63;4969559;28;20070;-51
2021/12/28 08:36:09;;;;;;;5.22;3.55;;;;;;;8.19;81.10;97113.59;4965379;28;20050;-53
2021/12/28 08:38:35;;;;;;;2.33;1.27;;;;;;;8.15;81.62;97106.88;4965767;28;20098;-48
2021/12/28 08:41:02;;;;;;;1.45;1.05;;;;;;;8.09;81.59;97117.44;4957689;28;20055;-51
2021/12/28 08:43:29;;;;;;;2.90;2.22;;;;;;;8.10;81.63;97116.53;4963942;28;20055;-48
2021/12/28 08:45:55;;;;;;;1.92;1.45;;;;;;;8.08;81.04;97115.75;4966115;28;20124;-55
2021/12/28 08:48:23;;;;;;;2.33;1.50;;;;;;;8.06;80.87;97112.38;4965386;28;20043;-52
2021/12/28 08:50:50;;;;;;;2.25;1.40;;;;;;;8.04;81.72;97124.53;4961832;28;20101;-48
2021/12/28 08:53:16;;;;;;;5.47;2.38;;;;;;;8.01;81.65;97114.31;4964418;28;20076;-51
2021/12/28 08:55:43;;;;;;;3.78;1.35;;;;;;;8.02;81.39;97126.31;4956426;28;20098;-55
2021/12/28 08:58:09;;;;;;;3.30;1.67;;;;;;;7.98;81.18;97131.56;4957684;28;20062;-51
2021/12/28 09:00:37;;;;;;;5.55;1.85;;;;;;;7.97;82.23;97135.06;4966136;28;20491;-58
2021/12/28 09:03:04;;;;;;;3.40;1.88;;;;;;;7.95;81.59;97131.72;4967949;28;20050;-55
2021/12/28 09:05:31;;;;;;;4.20;1.45;;;;;;;7.93;81.70;97128.34;4965497;28;20047;-54
2021/12/28 09:07:58;;;;;;;5.47;2.42;;;;;;;7.93;80.53;97132.66;4965336;28;20052;-51
2021/12/28 09:10:25;;;;;;;12.20;5.97;;;;;;;7.90;80.83;97127.63;4967615;28;20058;-51
2021/12/28 09:12:53;;;;;;;13.35;4.70;;;;;;;7.88;81.69;97126.84;4966211;28;20058;-54
2021/12/28 09:15:20;;;;;;;6.70;2.30;;;;;;;7.86;81.49;97121.75;4963882;28;20082;-51
2021/12/28 09:17:47;;;;;;;5.80;2.70;;;;;;;7.81;81.12;97128.81;4964368;28;20050;-51
2021/12/28 09:20:18;;;;;;;5.60;2.90;;;;;;;7.82;80.60;97139.09;4964732;28;20043;-54
2021/12/28 09:23:03;;;;;;;3.85;2.35;;;;;;;7.82;80.44;97135.66;4966789;28;20058;-55
2021/12/28 09:25:30;;;;;;;4.00;2.45;;;;;;;7.83;80.43;97147.63;4968686;28;20113;-48
2021/12/28 09:27:57;;;;;;;4.60;1.38;;;;;;;7.82;81.43;97151.13;4962971;28;20101;-56
2021/12/28 09:30:24;;;;;;;5.93;2.88;;;;;;;7.80;80.71;97152.94;4957445;28;20061;-54
2021/12/28 09:32:51;;;;;;;3.70;1.10;;;;;;;7.79;80.98;97156.38;4960244;28;20055;-49
2021/12/28 09:35:18;;;;;;;3.95;1.65;;;;;;;7.76;81.08;97148.75;4965774;28;20102;-52
2021/12/28 09:37:45;;;;;;;6.63;1.15;;;;;;;7.76;81.35;97151.34;4965669;28;20483;-51
2021/12/28 09:40:13;;;;;;;5.28;2.15;;;;;;;7.76;80.77;97146.19;4969976;28;20143;-54
2021/12/28 09:42:42;;;;;;;6.20;1.20;;;;;;;7.75;81.81;97154.81;4968578;28;20062;-55
2021/12/28 09:45:11;;;;;;;6.95;1.58;;;;;;;7.74;80.77;97137.69;4965043;28;20050;-51
2021/12/28 09:47:41;;;;;;;14.65;1.10;;;;;;;7.71;82.07;97147.19;4965110;28;20063;-50
2021/12/28 09:50:11;;;;;;;6.72;1.42;;;;;;;7.71;81.67;97143.81;4966399;28;20103;-55
2021/12/28 09:52:38;;;;;;;;;;;;;;;7.61;82.22;97147.59;4968404;28;20070;-50
2021/12/28 09:55:06;;;;;;;9.05;1.10;;;;;;;7.66;80.80;97150.84;4967801;28;19934;-55
2021/12/28 09:57:33;;;;;;;5.68;1.40;;;;;;;7.67;81.20;97148.22;4965315;28;20042;-54
2021/12/28 10:00:00;;;;;;;7.13;0.95;;;;;;;7.63;80.39;97162.09;4968498;28;20051;-50
2021/12/28 10:02:26;;;;;;;5.70;1.25;;;;;;;7.65;81.06;97165.47;4966710;28;20055;-52
2021/12/28 10:05:12;;;;;;;8.48;1.52;;;;;;;7.64;81.77;97171.53;4963402;28;20047;-51
2021/12/28 10:07:47;;;;;;;6.07;1.00;;;;;;;7.66;81.96;97174.88;4970822;28;20101;-54
2021/12/28 10:10:14;;;;;;;6.30;1.55;;;;;;;7.68;80.89;97170.53;4965781;28;20051;-49
2021/12/28 10:12:44;;;;;;;5.70;1.17;;;;;;;7.68;80.82;97170.53;4972389;28;20074;-50
2021/12/28 10:15:17;;;;;;;8.20;1.02;;;;;;;7.68;81.55;97180.81;4966923;28;20138;-54
2021/12/28 10:17:46;;;;;;;4.63;0.70;;;;;;;7.69;80.84;97182.50;4970642;28;20399;-54
2021/12/28 10:20:19;;;;;;;15.07;3.40;;;;;;;7.75;81.63;97180.59;4965838;28;20100;-52
2021/12/28 10:22:48;;;;;;;7.15;2.13;;;;;;;7.75;80.75;97196.88;4958425;28;20055;-51
2021/12/28 10:25:20;;;;;;;13.60;3.80;;;;;;;7.80;81.54;97199.31;4964508;28;20054;-53
2021/12/28 10:27:51;;;;;;;23.23;6.53;;;;;;;7.85;80.95;97202.53;4966286;28;20058;-49
2021/12/28 10:30:24;;;;;;;15.48;6.13;;;;;;;7.89;81.13;97211.84;4966259;28;20419;-54
2021/12/28 10:32:53;;;;;;;10.45;4.15;;;;;;;7.94;81.77;97214.25;4964972;28;20819;-50
2021/12/28 10:35:23;;;;;;;9.13;3.03;;;;;;;7.95;80.50;97218.50;4962748;28;21666;-51
2021/12/28 10:37:55;;;;;;;5.40;2.30;;;;;;;7.97;80.54;97230.41;4964239;28;20520;-51
2021/12/28 10:40:28;;;;;;;2.47;1.10;;;;;;;7.94;80.70;97227.94;4964508;28;20109;-48
2021/12/28 10:43:00;;;;;;;8.18;3.08;;;;;;;7.90;80.92;97234.13;4964380;28;20466;-54
2021/12/28 10:45:36;;;;;;;4.07;1.15;;;;;;;7.91;79.90;97248.69;4961618;28;20565;-52
2021/12/28 10:48:06;;;;;;;1.42;0.60;;;;;;;7.90;79.96;97251.34;4962624;28;20047;-49
2021/12/28 10:50:38;;;;;;;1.10;0.80;;;;;;;7.86;79.78;97255.75;4965425;28;20109;-51
2021/12/28 10:53:13;;;;;;;1.27;0.70;;;;;;;7.87;80.22;97260.00;4968396;28;20093;-51
2021/12/28 10:55:42;;;;;;;1.10;0.30;;;;;;;7.84;80.82;97262.72;4959116;28;20388;-54
2021/12/28 10:58:19;;;;;;;2.08;0.68;;;;;;;7.86;79.78;97260.09;4964620;28;20434;-55
2021/12/28 11:00:46;;;;;;;1.60;0.30;;;;;;;7.85;80.25;97269.53;4965453;28;20105;-49
2021/12/28 11:03:23;;;;;;;0.70;0.70;;;;;;;7.83;79.69;97276.47;4958767;28;20450;-53
2021/12/28 11:05:51;;;;;;;0.60;0.20;;;;;;;7.85;81.16;97285.00;4959949;28;20051;-51
2021/12/28 11:08:19;;;;;;;0.80;0.80;;;;;;;7.88;80.99;97290.06;4965058;28;20051;-50
2021/12/28 11:10:49;;;;;;;0.60;0.52;;;;;;;7.91;80.91;97296.81;4958134;28;20141;-54
2021/12/28 11:13:24;;;;;;;2.65;1.52;;;;;;;7.87;80.27;97303.81;4961491;28;20086;-56
2021/12/28 11:15:50;;;;;;;1.63;0.52;;;;;;;7.80;80.26;97323.00;4963937;28;20226;-51
2021/12/28 11:18:20;;;;;;;0.88;0.82;;;;;;;7.79;79.46;97322.13;4966808;28;20047;-56
2021/12/28 11:20:49;;;;;;;2.50;0.73;;;;;;;7.79;80.00;97323.88;4963476;28;20055;-50
2021/12/28 11:23:21;;;;;;;1.40;0.60;;;;;;;7.76;80.71;97331.69;4965068;28;20046;-55
2021/12/28 11:26:02;;;;;;;4.97;0.73;;;;;;;7.74;81.11;97338.66;4964625;28;20052;-53
2021/12/28 11:28:30;;;;;;;1.00;0.50;;;;;;;7.78;80.01;97345.38;4961739;28;20423;-50
2021/12/28 11:31:04;;;;;;;1.42;0.60;;;;;;;7.79;80.15;97357.38;4966767;28;20059;-49
2021/12/28 11:33:42;;;;;;;1.23;0.35;;;;;;;7.76;80.36;97358.31;4967000;28;20058;-51
2021/12/28 11:36:09;;;;;;;0.88;0.82;;;;;;;7.79;81.30;97359.94;4967433;28;20042;-52
2021/12/28 11:38:37;;;;;;;0.82;0.35;;;;;;;7.80;80.44;97366.78;4962547;28;20042;-57
2021/12/28 11:41:05;;;;;;;1.02;0.40;;;;;;;7.85;81.10;97377.78;4962648;28;20667;-50
2021/12/28 11:43:34;;;;;;;2.80;0.93;;;;;;;7.89;81.34;97384.50;4965608;28;20101;-55